sensor_id;sensor_type;location;lat;lon;timestamp;temperature;humidity
73133;DHT22;61320;52.008;4.530;2023-02-12T00:00:33;10.53;71.49
73133;DHT22;61320;52.008;4.530;2023-02-12T00:02:58;10.48;71.54
73133;DHT22;61320;52.008;4.530;2023-02-12T00:05:24;10.50;71.74
73133;DHT22;61320;52.008;4.530;2023-02-12T00:07:49;10.48;71.70
73133;DHT22;61320;52.008;4.530;2023-02-12T00:10:15;10.50;71.76
73133;DHT22;61320;52.008;4.530;2023-02-12T00:12:41;10.48;71.70
73133;DHT22;61320;52.008;4.530;2023-02-12T00:15:07;10.51;71.89
73133;DHT22;61320;52.008;4.530;2023-02-12T00:17:32;10.50;71.92
73133;DHT22;61320;52.008;4.530;2023-02-12T00:19:58;10.50;71.99
73133;DHT22;61320;52.008;4.530;2023-02-12T00:22:23;10.50;71.89
73133;DHT22;61320;52.008;4.530;2023-02-12T00:24:49;10.46;71.82
73133;DHT22;61320;52.008;4.530;2023-02-12T00:27:14;10.46;71.90
73133;DHT22;61320;52.008;4.530;2023-02-12T00:29:40;10.46;71.90
73133;DHT22;61320;52.008;4.530;2023-02-12T00:32:05;10.46;71.68
73133;DHT22;61320;52.008;4.530;2023-02-12T00:34:31;10.46;71.61
73133;DHT22;61320;52.008;4.530;2023-02-12T00:36:56;10.43;71.42
73133;DHT22;61320;52.008;4.530;2023-02-12T00:39:21;10.41;71.42
73133;DHT22;61320;52.008;4.530;2023-02-12T00:41:47;10.44;71.49
73133;DHT22;61320;52.008;4.530;2023-02-12T00:44:12;10.43;71.54
73133;DHT22;61320;52.008;4.530;2023-02-12T00:46:38;10.47;71.50
73133;DHT22;61320;52.008;4.530;2023-02-12T00:49:03;10.47;71.64
73133;DHT22;61320;52.008;4.530;2023-02-12T00:51:29;10.47;71.59
73133;DHT22;61320;52.008;4.530;2023-02-12T00:53:54;10.44;71.68
73133;DHT22;61320;52.008;4.530;2023-02-12T00:56:20;10.46;71.69
73133;DHT22;61320;52.008;4.530;2023-02-12T00:58:49;10.43;71.63
73133;DHT22;61320;52.008;4.530;2023-02-12T01:01:15;10.43;71.76
73133;DHT22;61320;52.008;4.530;2023-02-12T01:03:41;10.40;71.72
73133;DHT22;61320;52.008;4.530;2023-02-12T01:06:07;10.38;71.56
73133;DHT22;61320;52.008;4.530;2023-02-12T01:08:32;10.36;71.63
73133;DHT22;61320;52.008;4.530;2023-02-12T01:11:01;10.33;71.86
73133;DHT22;61320;52.008;4.530;2023-02-12T01:13:27;10.36;71.92
73133;DHT22;61320;52.008;4.530;2023-02-12T01:16:07;10.37;71.91
73133;DHT22;61320;52.008;4.530;2023-02-12T01:18:35;10.34;71.93
73133;DHT22;61320;52.008;4.530;2023-02-12T01:21:09;10.33;71.92
73133;DHT22;61320;52.008;4.530;2023-02-12T01:23:34;10.34;72.10
73133;DHT22;61320;52.008;4.530;2023-02-12T01:26:00;10.32;72.08
73133;DHT22;61320;52.008;4.530;2023-02-12T01:28:25;10.32;72.16
73133;DHT22;61320;52.008;4.530;2023-02-12T01:30:51;10.30;72.05
73133;DHT22;61320;52.008;4.530;2023-02-12T01:33:16;10.30;72.15
73133;DHT22;61320;52.008;4.530;2023-02-12T01:35:42;10.30;72.18
73133;DHT22;61320;52.008;4.530;2023-02-12T01:38:07;10.27;72.11
73133;DHT22;61320;52.008;4.530;2023-02-12T01:40:32;10.29;72.11
73133;DHT22;61320;52.008;4.530;2023-02-12T01:43:02;10.29;72.01
73133;DHT22;61320;52.008;4.530;2023-02-12T01:47:53;10.30;72.24
73133;DHT22;61320;52.008;4.530;2023-02-12T01:50:19;10.27;72.16
73133;DHT22;61320;52.008;4.530;2023-02-12T01:52:50;10.24;72.14
73133;DHT22;61320;52.008;4.530;2023-02-12T01:55:18;10.24;72.21
73133;DHT22;61320;52.008;4.530;2023-02-12T01:57:48;10.27;72.23
73133;DHT22;61320;52.008;4.530;2023-02-12T02:00:17;10.26;72.24
73133;DHT22;61320;52.008;4.530;2023-02-12T02:02:48;10.23;72.22
73133;DHT22;61320;52.008;4.530;2023-02-12T02:05:22;10.24;72.21
73133;DHT22;61320;52.008;4.530;2023-02-12T02:07:48;10.23;72.23
73133;DHT22;61320;52.008;4.530;2023-02-12T02:10:14;10.24;72.32
73133;DHT22;61320;52.008;4.530;2023-02-12T02:12:39;10.24;72.22
73133;DHT22;61320;52.008;4.530;2023-02-12T02:15:29;10.23;72.04
73133;DHT22;61320;52.008;4.530;2023-02-12T02:18:21;10.20;71.94
73133;DHT22;61320;52.008;4.530;2023-02-12T02:21:30;10.21;72.16
73133;DHT22;61320;52.008;4.530;2023-02-12T02:24:24;10.21;72.29
73133;DHT22;61320;52.008;4.530;2023-02-12T02:27:14;10.21;72.30
73133;DHT22;61320;52.008;4.530;2023-02-12T02:32:45;10.18;72.28
73133;DHT22;61320;52.008;4.530;2023-02-12T02:35:27;10.20;72.28
73133;DHT22;61320;52.008;4.530;2023-02-12T02:41:06;10.16;72.03
73133;DHT22;61320;52.008;4.530;2023-02-12T02:43:47;10.16;71.87
73133;DHT22;61320;52.008;4.530;2023-02-12T02:46:22;10.17;71.86
73133;DHT22;61320;52.008;4.530;2023-02-12T02:48:59;10.16;71.62
73133;DHT22;61320;52.008;4.530;2023-02-12T02:51:31;10.14;71.40
73133;DHT22;61320;52.008;4.530;2023-02-12T02:54:05;10.14;71.35
73133;DHT22;61320;52.008;4.530;2023-02-12T02:56:35;10.16;71.20
73133;DHT22;61320;52.008;4.530;2023-02-12T02:59:10;10.13;71.22
73133;DHT22;61320;52.008;4.530;2023-02-12T03:01:50;10.13;70.53
73133;DHT22;61320;52.008;4.530;2023-02-12T03:04:26;10.16;70.52
73133;DHT22;61320;52.008;4.530;2023-02-12T03:09:48;10.16;69.94
73133;DHT22;61320;52.008;4.530;2023-02-12T03:12:25;10.18;70.13
73133;DHT22;61320;52.008;4.530;2023-02-12T03:15:14;10.18;70.34
73133;DHT22;61320;52.008;4.530;2023-02-12T03:17:48;10.17;70.42
73133;DHT22;61320;52.008;4.530;2023-02-12T03:20:29;10.17;70.21
73133;DHT22;61320;52.008;4.530;2023-02-12T03:23:03;10.14;70.25
73133;DHT22;61320;52.008;4.530;2023-02-12T03:25:39;10.13;70.18
73133;DHT22;61320;52.008;4.530;2023-02-12T03:28:10;10.13;70.20
73133;DHT22;61320;52.008;4.530;2023-02-12T03:30:46;10.13;70.09
73133;DHT22;61320;52.008;4.530;2023-02-12T03:34:04;10.13;70.28
73133;DHT22;61320;52.008;4.530;2023-02-12T03:40:14;10.17;70.15
73133;DHT22;61320;52.008;4.530;2023-02-12T03:42:33;10.10;69.71
73133;DHT22;61320;52.008;4.530;2023-02-12T03:45:13;10.09;69.18
73133;DHT22;61320;52.008;4.530;2023-02-12T03:47:50;10.06;69.20
73133;DHT22;61320;52.008;4.530;2023-02-12T03:50:32;10.09;69.61
73133;DHT22;61320;52.008;4.530;2023-02-12T03:53:01;10.12;69.85
73133;DHT22;61320;52.008;4.530;2023-02-12T03:55:27;10.10;70.06
73133;DHT22;61320;52.008;4.530;2023-02-12T03:58:00;10.09;70.21
73133;DHT22;61320;52.008;4.530;2023-02-12T04:00:27;10.12;69.98
73133;DHT22;61320;52.008;4.530;2023-02-12T04:02:54;10.13;70.18
73133;DHT22;61320;52.008;4.530;2023-02-12T04:05:23;10.13;70.27
73133;DHT22;61320;52.008;4.530;2023-02-12T04:07:51;10.10;69.92
73133;DHT22;61320;52.008;4.530;2023-02-12T04:10:24;10.07;69.08
73133;DHT22;61320;52.008;4.530;2023-02-12T04:13:00;10.05;69.03
73133;DHT22;61320;52.008;4.530;2023-02-12T04:15:39;10.06;69.79
73133;DHT22;61320;52.008;4.530;2023-02-12T04:18:15;10.06;69.81
73133;DHT22;61320;52.008;4.530;2023-02-12T04:26:16;10.05;70.19
73133;DHT22;61320;52.008;4.530;2023-02-12T04:29:13;10.06;70.46
73133;DHT22;61320;52.008;4.530;2023-02-12T04:32:10;10.07;70.66
73133;DHT22;61320;52.008;4.530;2023-02-12T04:37:47;10.06;70.61
73133;DHT22;61320;52.008;4.530;2023-02-12T04:40:17;10.02;70.39
73133;DHT22;61320;52.008;4.530;2023-02-12T04:42:46;10.02;70.42
73133;DHT22;61320;52.008;4.530;2023-02-12T04:45:18;10.03;70.23
73133;DHT22;61320;52.008;4.530;2023-02-12T04:47:45;9.97;67.88
73133;DHT22;61320;52.008;4.530;2023-02-12T04:50:11;9.88;67.66
73133;DHT22;61320;52.008;4.530;2023-02-12T04:52:37;9.88;68.72
73133;DHT22;61320;52.008;4.530;2023-02-12T04:55:02;9.93;69.30
73133;DHT22;61320;52.008;4.530;2023-02-12T04:57:28;9.96;69.12
73133;DHT22;61320;52.008;4.530;2023-02-12T04:59:53;9.92;68.20
73133;DHT22;61320;52.008;4.530;2023-02-12T05:02:19;9.93;68.71
73133;DHT22;61320;52.008;4.530;2023-02-12T05:04:44;9.95;69.15
73133;DHT22;61320;52.008;4.530;2023-02-12T05:07:10;9.95;69.25
73133;DHT22;61320;52.008;4.530;2023-02-12T05:09:36;9.99;69.68
73133;DHT22;61320;52.008;4.530;2023-02-12T05:12:02;9.96;69.03
73133;DHT22;61320;52.008;4.530;2023-02-12T05:14:27;9.99;68.80
73133;DHT22;61320;52.008;4.530;2023-02-12T05:16:53;9.97;68.76
73133;DHT22;61320;52.008;4.530;2023-02-12T05:19:18;9.99;69.24
73133;DHT22;61320;52.008;4.530;2023-02-12T05:21:43;10.02;69.55
73133;DHT22;61320;52.008;4.530;2023-02-12T05:24:09;10.00;68.82
73133;DHT22;61320;52.008;4.530;2023-02-12T05:26:35;9.96;68.29
73133;DHT22;61320;52.008;4.530;2023-02-12T05:29:01;9.99;68.46
73133;DHT22;61320;52.008;4.530;2023-02-12T05:31:27;9.99;68.72
73133;DHT22;61320;52.008;4.530;2023-02-12T05:33:53;9.97;68.72
73133;DHT22;61320;52.008;4.530;2023-02-12T05:36:22;9.99;69.08
73133;DHT22;61320;52.008;4.530;2023-02-12T05:38:49;10.00;69.10
73133;DHT22;61320;52.008;4.530;2023-02-12T05:41:20;10.02;69.12
73133;DHT22;61320;52.008;4.530;2023-02-12T05:43:47;10.02;68.95
73133;DHT22;61320;52.008;4.530;2023-02-12T05:46:12;10.02;69.50
73133;DHT22;61320;52.008;4.530;2023-02-12T05:48:39;10.03;69.73
73133;DHT22;61320;52.008;4.530;2023-02-12T05:51:14;10.05;70.00
73133;DHT22;61320;52.008;4.530;2023-02-12T05:53:40;10.05;70.13
73133;DHT22;61320;52.008;4.530;2023-02-12T05:58:34;10.06;70.07
73133;DHT22;61320;52.008;4.530;2023-02-12T06:01:00;10.03;70.39
73133;DHT22;61320;52.008;4.530;2023-02-12T06:03:26;10.03;70.41
73133;DHT22;61320;52.008;4.530;2023-02-12T06:05:52;10.02;70.33
73133;DHT22;61320;52.008;4.530;2023-02-12T06:08:18;9.96;69.56
73133;DHT22;61320;52.008;4.530;2023-02-12T06:10:43;9.97;70.06
73133;DHT22;61320;52.008;4.530;2023-02-12T06:13:09;10.00;70.05
73133;DHT22;61320;52.008;4.530;2023-02-12T06:15:37;10.00;70.22
73133;DHT22;61320;52.008;4.530;2023-02-12T06:18:02;9.99;70.26
73133;DHT22;61320;52.008;4.530;2023-02-12T06:20:28;9.97;70.26
73133;DHT22;61320;52.008;4.530;2023-02-12T06:22:54;9.97;70.26
73133;DHT22;61320;52.008;4.530;2023-02-12T06:25:19;9.96;70.38
73133;DHT22;61320;52.008;4.530;2023-02-12T06:27:45;9.95;70.20
73133;DHT22;61320;52.008;4.530;2023-02-12T06:30:11;9.92;70.09
73133;DHT22;61320;52.008;4.530;2023-02-12T06:32:37;9.88;68.71
73133;DHT22;61320;52.008;4.530;2023-02-12T06:35:02;9.89;69.28
73133;DHT22;61320;52.008;4.530;2023-02-12T06:37:28;9.90;69.49
73133;DHT22;61320;52.008;4.530;2023-02-12T06:39:53;9.90;69.67
73133;DHT22;61320;52.008;4.530;2023-02-12T06:42:19;9.88;69.63
73133;DHT22;61320;52.008;4.530;2023-02-12T06:44:44;9.86;68.73
73133;DHT22;61320;52.008;4.530;2023-02-12T06:47:11;9.85;68.26
73133;DHT22;61320;52.008;4.530;2023-02-12T06:49:36;9.83;68.71
73133;DHT22;61320;52.008;4.530;2023-02-12T06:52:01;9.81;67.66
73133;DHT22;61320;52.008;4.530;2023-02-12T06:54:27;9.81;67.73
73133;DHT22;61320;52.008;4.530;2023-02-12T06:56:52;9.82;67.62
73133;DHT22;61320;52.008;4.530;2023-02-12T06:59:18;9.82;67.51
73133;DHT22;61320;52.008;4.530;2023-02-12T07:01:44;9.85;67.57
73133;DHT22;61320;52.008;4.530;2023-02-12T07:04:09;9.83;67.46
73133;DHT22;61320;52.008;4.530;2023-02-12T07:06:35;9.86;67.91
73133;DHT22;61320;52.008;4.530;2023-02-12T07:09:02;9.89;68.36
73133;DHT22;61320;52.008;4.530;2023-02-12T07:11:33;9.92;68.63
73133;DHT22;61320;52.008;4.530;2023-02-12T07:13:59;9.93;69.10
73133;DHT22;61320;52.008;4.530;2023-02-12T07:16:25;9.90;68.90
73133;DHT22;61320;52.008;4.530;2023-02-12T07:18:51;9.93;69.09
73133;DHT22;61320;52.008;4.530;2023-02-12T07:21:17;9.95;68.69
73133;DHT22;61320;52.008;4.530;2023-02-12T07:23:48;9.92;67.59
73133;DHT22;61320;52.008;4.530;2023-02-12T07:26:15;9.92;68.02
73133;DHT22;61320;52.008;4.530;2023-02-12T07:28:41;9.97;67.86
73133;DHT22;61320;52.008;4.530;2023-02-12T07:31:16;9.96;67.50
73133;DHT22;61320;52.008;4.530;2023-02-12T07:33:42;9.96;67.49
73133;DHT22;61320;52.008;4.530;2023-02-12T07:36:12;9.95;67.46
73133;DHT22;61320;52.008;4.530;2023-02-12T07:38:38;9.97;67.70
73133;DHT22;61320;52.008;4.530;2023-02-12T07:41:09;9.96;67.85
73133;DHT22;61320;52.008;4.530;2023-02-12T07:43:34;9.97;68.36
73133;DHT22;61320;52.008;4.530;2023-02-12T07:46:08;9.97;68.70
73133;DHT22;61320;52.008;4.530;2023-02-12T07:48:34;10.02;69.09
73133;DHT22;61320;52.008;4.530;2023-02-12T07:51:05;10.03;69.29
73133;DHT22;61320;52.008;4.530;2023-02-12T07:53:30;10.03;69.37
73133;DHT22;61320;52.008;4.530;2023-02-12T07:56:10;10.05;68.59
73133;DHT22;61320;52.008;4.530;2023-02-12T07:58:38;10.02;68.20
73133;DHT22;61320;52.008;4.530;2023-02-12T08:01:16;10.06;68.11
73133;DHT22;61320;52.008;4.530;2023-02-12T08:03:42;10.07;67.33
73133;DHT22;61320;52.008;4.530;2023-02-12T08:06:29;10.05;67.01
73133;DHT22;61320;52.008;4.530;2023-02-12T08:08:57;10.06;66.60
73133;DHT22;61320;52.008;4.530;2023-02-12T08:11:24;10.07;67.09
73133;DHT22;61320;52.008;4.530;2023-02-12T08:13:50;10.14;66.44
73133;DHT22;61320;52.008;4.530;2023-02-12T08:16:20;10.17;66.22
73133;DHT22;61320;52.008;4.530;2023-02-12T08:18:46;10.18;65.82
73133;DHT22;61320;52.008;4.530;2023-02-12T08:21:17;10.17;65.96
73133;DHT22;61320;52.008;4.530;2023-02-12T08:23:44;10.21;66.79
73133;DHT22;61320;52.008;4.530;2023-02-12T08:26:14;10.24;67.15
73133;DHT22;61320;52.008;4.530;2023-02-12T08:28:48;10.33;67.33
73133;DHT22;61320;52.008;4.530;2023-02-12T08:31:17;10.33;67.59
73133;DHT22;61320;52.008;4.530;2023-02-12T08:33:49;10.34;67.22
73133;DHT22;61320;52.008;4.530;2023-02-12T08:36:20;10.38;67.44
73133;DHT22;61320;52.008;4.530;2023-02-12T08:38:46;10.40;67.63
73133;DHT22;61320;52.008;4.530;2023-02-12T08:41:23;10.46;67.14
73133;DHT22;61320;52.008;4.530;2023-02-12T08:43:52;10.47;67.44
73133;DHT22;61320;52.008;4.530;2023-02-12T08:46:23;10.47;67.82
73133;DHT22;61320;52.008;4.530;2023-02-12T08:48:52;10.55;67.26
73133;DHT22;61320;52.008;4.530;2023-02-12T08:51:21;10.54;65.74
73133;DHT22;61320;52.008;4.530;2023-02-12T08:53:51;10.57;65.88
73133;DHT22;61320;52.008;4.530;2023-02-12T08:56:17;10.60;65.61
73133;DHT22;61320;52.008;4.530;2023-02-12T08:58:44;10.63;65.86
73133;DHT22;61320;52.008;4.530;2023-02-12T09:01:15;10.67;66.02
73133;DHT22;61320;52.008;4.530;2023-02-12T09:03:43;10.72;66.40
73133;DHT22;61320;52.008;4.530;2023-02-12T09:06:09;10.77;66.58
73133;DHT22;61320;52.008;4.530;2023-02-12T09:08:36;10.79;66.03
73133;DHT22;61320;52.008;4.530;2023-02-12T09:11:17;10.79;64.70
73133;DHT22;61320;52.008;4.530;2023-02-12T09:13:44;10.86;65.71
73133;DHT22;61320;52.008;4.530;2023-02-12T09:16:11;10.91;65.68
73133;DHT22;61320;52.008;4.530;2023-02-12T09:18:37;10.88;63.15
73133;DHT22;61320;52.008;4.530;2023-02-12T09:21:14;10.82;63.00
73133;DHT22;61320;52.008;4.530;2023-02-12T09:23:42;10.91;63.74
73133;DHT22;61320;52.008;4.530;2023-02-12T09:26:10;11.01;62.78
73133;DHT22;61320;52.008;4.530;2023-02-12T09:28:37;11.02;63.28
73133;DHT22;61320;52.008;4.530;2023-02-12T09:31:11;11.04;63.92
73133;DHT22;61320;52.008;4.530;2023-02-12T09:33:37;11.11;64.33
73133;DHT22;61320;52.008;4.530;2023-02-12T09:36:04;11.16;62.88
73133;DHT22;61320;52.008;4.530;2023-02-12T09:38:31;11.16;62.32
73133;DHT22;61320;52.008;4.530;2023-02-12T09:45:05;11.20;61.02
73133;DHT22;61320;52.008;4.530;2023-02-12T09:47:22;11.25;61.86
73133;DHT22;61320;52.008;4.530;2023-02-12T09:50:05;11.26;61.95
73133;DHT22;61320;52.008;4.530;2023-02-12T09:52:36;11.32;61.23
73133;DHT22;61320;52.008;4.530;2023-02-12T09:55:02;11.29;61.01
73133;DHT22;61320;52.008;4.530;2023-02-12T09:57:33;11.30;61.58
73133;DHT22;61320;52.008;4.530;2023-02-12T10:00:28;11.35;61.12
73133;DHT22;61320;52.008;4.530;2023-02-12T10:02:59;11.33;61.31
73133;DHT22;61320;52.008;4.530;2023-02-12T10:05:30;11.33;62.43
73133;DHT22;61320;52.008;4.530;2023-02-12T10:16:17;11.49;60.85
73133;DHT22;61320;52.008;4.530;2023-02-12T10:21:52;11.46;60.24
73133;DHT22;61320;52.008;4.530;2023-02-12T10:24:35;11.47;60.33
73133;DHT22;61320;52.008;4.530;2023-02-12T10:27:13;11.50;60.87
73133;DHT22;61320;52.008;4.530;2023-02-12T10:29:41;11.54;59.98
73133;DHT22;61320;52.008;4.530;2023-02-12T10:32:24;11.57;59.51
73133;DHT22;61320;52.008;4.530;2023-02-12T10:34:52;11.62;59.50
73133;DHT22;61320;52.008;4.530;2023-02-12T10:37:31;11.66;59.97
73133;DHT22;61320;52.008;4.530;2023-02-12T10:40:28;11.70;60.29
73133;DHT22;61320;52.008;4.530;2023-02-12T10:42:58;11.77;59.56
73133;DHT22;61320;52.008;4.530;2023-02-12T10:45:33;11.75;59.93
73133;DHT22;61320;52.008;4.530;2023-02-12T10:53:22;11.85;59.86
73133;DHT22;61320;52.008;4.530;2023-02-12T10:55:49;11.90;60.76
73133;DHT22;61320;52.008;4.530;2023-02-12T10:58:23;11.95;57.94
73133;DHT22;61320;52.008;4.530;2023-02-12T11:00:57;11.93;59.41
73133;DHT22;61320;52.008;4.530;2023-02-12T11:03:30;11.95;59.01
73133;DHT22;61320;52.008;4.530;2023-02-12T11:08:36;12.02;59.01
73133;DHT22;61320;52.008;4.530;2023-02-12T11:11:17;12.02;58.68
73133;DHT22;61320;52.008;4.530;2023-02-12T11:14:15;12.05;57.96
73133;DHT22;61320;52.008;4.530;2023-02-12T11:16:35;12.04;59.00
73133;DHT22;61320;52.008;4.530;2023-02-12T11:19:05;12.08;57.34
73133;DHT22;61320;52.008;4.530;2023-02-12T11:21:33;12.06;57.38
73133;DHT22;61320;52.008;4.530;2023-02-12T11:26:45;11.94;60.54
73133;DHT22;61320;52.008;4.530;2023-02-12T11:29:22;11.90;60.87
73133;DHT22;61320;52.008;4.530;2023-02-12T11:32:03;11.90;61.25
73133;DHT22;61320;52.008;4.530;2023-02-12T11:34:30;11.90;61.89
73133;DHT22;61320;52.008;4.530;2023-02-12T11:36:56;11.97;61.73
73133;DHT22;61320;52.008;4.530;2023-02-12T11:39:32;11.98;61.54
73133;DHT22;61320;52.008;4.530;2023-02-12T11:42:07;11.91;61.09
73133;DHT22;61320;52.008;4.530;2023-02-12T11:44:46;11.83;60.95
73133;DHT22;61320;52.008;4.530;2023-02-12T11:47:28;11.70;61.64
73133;DHT22;61320;52.008;4.530;2023-02-12T11:52:31;11.63;62.54
73133;DHT22;61320;52.008;4.530;2023-02-12T11:55:04;11.69;62.50
73133;DHT22;61320;52.008;4.530;2023-02-12T11:57:43;11.77;61.54
73133;DHT22;61320;52.008;4.530;2023-02-12T12:00:29;11.81;61.59
73133;DHT22;61320;52.008;4.530;2023-02-12T12:03:00;11.85;60.68
73133;DHT22;61320;52.008;4.530;2023-02-12T12:05:34;11.91;60.23
73133;DHT22;61320;52.008;4.530;2023-02-12T12:08:26;11.77;60.18
73133;DHT22;61320;52.008;4.530;2023-02-12T12:10:58;11.71;60.63
73133;DHT22;61320;52.008;4.530;2023-02-12T12:16:54;11.69;60.87
73133;DHT22;61320;52.008;4.530;2023-02-12T12:19:56;11.60;61.65
73133;DHT22;61320;52.008;4.530;2023-02-12T12:30:36;11.60;60.89
73133;DHT22;61320;52.008;4.530;2023-02-12T12:36:13;11.52;61.08
73133;DHT22;61320;52.008;4.530;2023-02-12T12:57:51;11.33;62.34
73133;DHT22;61320;52.008;4.530;2023-02-12T13:06:10;11.44;62.39
73133;DHT22;61320;52.008;4.530;2023-02-12T13:09:00;11.49;61.92
73133;DHT22;61320;52.008;4.530;2023-02-12T13:14:23;11.47;62.28
73133;DHT22;61320;52.008;4.530;2023-02-12T13:17:06;11.50;61.00
73133;DHT22;61320;52.008;4.530;2023-02-12T13:25:27;11.46;60.98
73133;DHT22;61320;52.008;4.530;2023-02-12T13:27:58;11.39;61.44
73133;DHT22;61320;52.008;4.530;2023-02-12T13:30:57;11.36;61.95
73133;DHT22;61320;52.008;4.530;2023-02-12T13:33:24;11.42;62.03
73133;DHT22;61320;52.008;4.530;2023-02-12T13:35:56;11.49;61.80
73133;DHT22;61320;52.008;4.530;2023-02-12T13:38:29;11.49;62.14
73133;DHT22;61320;52.008;4.530;2023-02-12T13:41:02;11.57;61.80
73133;DHT22;61320;52.008;4.530;2023-02-12T13:43:50;11.50;61.17
73133;DHT22;61320;52.008;4.530;2023-02-12T13:46:23;11.46;61.70
73133;DHT22;61320;52.008;4.530;2023-02-12T13:51:58;11.44;61.21
73133;DHT22;61320;52.008;4.530;2023-02-12T13:54:46;11.44;60.60
73133;DHT22;61320;52.008;4.530;2023-02-12T13:57:17;11.26;62.14
73133;DHT22;61320;52.008;4.530;2023-02-12T13:59:49;11.30;62.10
73133;DHT22;61320;52.008;4.530;2023-02-12T14:02:41;11.36;61.95
73133;DHT22;61320;52.008;4.530;2023-02-12T14:05:23;11.32;62.45
73133;DHT22;61320;52.008;4.530;2023-02-12T14:07:57;11.33;62.37
73133;DHT22;61320;52.008;4.530;2023-02-12T14:10:36;11.36;62.34
73133;DHT22;61320;52.008;4.530;2023-02-12T14:13:24;11.36;61.70
73133;DHT22;61320;52.008;4.530;2023-02-12T14:15:54;11.30;62.39
73133;DHT22;61320;52.008;4.530;2023-02-12T14:18:26;11.30;62.00
73133;DHT22;61320;52.008;4.530;2023-02-12T14:23:42;11.32;62.79
73133;DHT22;61320;52.008;4.530;2023-02-12T14:26:12;11.35;63.28
73133;DHT22;61320;52.008;4.530;2023-02-12T14:28:59;11.39;62.55
73133;DHT22;61320;52.008;4.530;2023-02-12T14:36:38;11.30;61.93
73133;DHT22;61320;52.008;4.530;2023-02-12T14:41:46;11.33;62.36
73133;DHT22;61320;52.008;4.530;2023-02-12T14:47:03;11.40;62.31
73133;DHT22;61320;52.008;4.530;2023-02-12T14:49:52;11.40;62.98
73133;DHT22;61320;52.008;4.530;2023-02-12T14:52:29;11.46;62.83
73133;DHT22;61320;52.008;4.530;2023-02-12T14:54:59;11.40;62.50
73133;DHT22;61320;52.008;4.530;2023-02-12T14:57:38;11.39;62.10
73133;DHT22;61320;52.008;4.530;2023-02-12T15:02:53;11.30;61.82
73133;DHT22;61320;52.008;4.530;2023-02-12T15:05:38;11.20;62.05
73133;DHT22;61320;52.008;4.530;2023-02-12T15:08:23;11.09;61.93
73133;DHT22;61320;52.008;4.530;2023-02-12T15:11:07;10.96;62.83
73133;DHT22;61320;52.008;4.530;2023-02-12T15:13:58;10.91;62.85
73133;DHT22;61320;52.008;4.530;2023-02-12T15:19:29;10.84;63.03
73133;DHT22;61320;52.008;4.530;2023-02-12T15:21:51;10.84;63.06
73133;DHT22;61320;52.008;4.530;2023-02-12T15:24:24;10.85;63.05
73133;DHT22;61320;52.008;4.530;2023-02-12T15:26:58;10.81;63.28
73133;DHT22;61320;52.008;4.530;2023-02-12T15:29:48;10.81;63.24
73133;DHT22;61320;52.008;4.530;2023-02-12T15:32:20;10.78;63.67
73133;DHT22;61320;52.008;4.530;2023-02-12T15:34:49;10.86;62.84
73133;DHT22;61320;52.008;4.530;2023-02-12T15:37:22;10.82;63.13
73133;DHT22;61320;52.008;4.530;2023-02-12T15:39:52;10.79;63.33
73133;DHT22;61320;52.008;4.530;2023-02-12T15:42:28;10.82;63.56
73133;DHT22;61320;52.008;4.530;2023-02-12T15:45:06;10.86;63.16
73133;DHT22;61320;52.008;4.530;2023-02-12T15:47:32;10.88;62.92
73133;DHT22;61320;52.008;4.530;2023-02-12T15:49:58;10.78;62.84
73133;DHT22;61320;52.008;4.530;2023-02-12T15:52:32;10.72;62.90
73133;DHT22;61320;52.008;4.530;2023-02-12T15:55:01;10.68;63.14
73133;DHT22;61320;52.008;4.530;2023-02-12T15:57:30;10.63;63.70
73133;DHT22;61320;52.008;4.530;2023-02-12T16:00:06;10.61;63.45
73133;DHT22;61320;52.008;4.530;2023-02-12T16:02:33;10.63;63.73
73133;DHT22;61320;52.008;4.530;2023-02-12T16:05:02;10.65;64.45
73133;DHT22;61320;52.008;4.530;2023-02-12T16:07:33;10.68;63.36
73133;DHT22;61320;52.008;4.530;2023-02-12T16:10:01;10.69;62.62
73133;DHT22;61320;52.008;4.530;2023-02-12T16:12:32;10.68;63.29
73133;DHT22;61320;52.008;4.530;2023-02-12T16:14:58;10.68;63.12
73133;DHT22;61320;52.008;4.530;2023-02-12T16:17:29;10.67;62.92
73133;DHT22;61320;52.008;4.530;2023-02-12T16:24:57;10.68;63.70
73133;DHT22;61320;52.008;4.530;2023-02-12T16:27:27;10.71;64.30
73133;DHT22;61320;52.008;4.530;2023-02-12T16:29:58;10.72;64.75
73133;DHT22;61320;52.008;4.530;2023-02-12T16:34:59;10.72;64.63
73133;DHT22;61320;52.008;4.530;2023-02-12T16:40:08;10.69;65.05
73133;DHT22;61320;52.008;4.530;2023-02-12T16:42:34;10.68;64.62
73133;DHT22;61320;52.008;4.530;2023-02-12T16:44:59;10.69;65.13
73133;DHT22;61320;52.008;4.530;2023-02-12T16:47:25;10.68;65.28
73133;DHT22;61320;52.008;4.530;2023-02-12T16:49:53;10.68;65.77
73133;DHT22;61320;52.008;4.530;2023-02-12T16:54:57;10.67;65.70
73133;DHT22;61320;52.008;4.530;2023-02-12T16:57:23;10.61;65.53
73133;DHT22;61320;52.008;4.530;2023-02-12T16:59:48;10.57;65.61
73133;DHT22;61320;52.008;4.530;2023-02-12T17:02:14;10.55;65.55
73133;DHT22;61320;52.008;4.530;2023-02-12T17:04:40;10.53;65.47
73133;DHT22;61320;52.008;4.530;2023-02-12T17:07:24;10.50;65.74
73133;DHT22;61320;52.008;4.530;2023-02-12T17:09:52;10.53;65.67
73133;DHT22;61320;52.008;4.530;2023-02-12T17:12:18;10.53;65.39
73133;DHT22;61320;52.008;4.530;2023-02-12T17:14:43;10.50;65.24
73133;DHT22;61320;52.008;4.530;2023-02-12T17:17:09;10.46;65.53
73133;DHT22;61320;52.008;4.530;2023-02-12T17:19:34;10.44;65.97
73133;DHT22;61320;52.008;4.530;2023-02-12T17:21:59;10.44;66.23
73133;DHT22;61320;52.008;4.530;2023-02-12T17:24:27;10.41;66.13
73133;DHT22;61320;52.008;4.530;2023-02-12T17:26:55;10.41;65.95
73133;DHT22;61320;52.008;4.530;2023-02-12T17:29:23;10.40;66.46
73133;DHT22;61320;52.008;4.530;2023-02-12T17:31:50;10.40;66.77
73133;DHT22;61320;52.008;4.530;2023-02-12T17:34:21;10.38;66.87
73133;DHT22;61320;52.008;4.530;2023-02-12T17:36:48;10.40;67.10
73133;DHT22;61320;52.008;4.530;2023-02-12T17:39:15;10.40;67.12
73133;DHT22;61320;52.008;4.530;2023-02-12T17:41:41;10.38;67.10
73133;DHT22;61320;52.008;4.530;2023-02-12T17:44:08;10.37;66.94
73133;DHT22;61320;52.008;4.530;2023-02-12T17:46:34;10.30;66.57
73133;DHT22;61320;52.008;4.530;2023-02-12T17:48:59;10.29;66.94
73133;DHT22;61320;52.008;4.530;2023-02-12T17:51:25;10.30;66.76
73133;DHT22;61320;52.008;4.530;2023-02-12T17:53:51;10.30;67.04
73133;DHT22;61320;52.008;4.530;2023-02-12T17:56:20;10.32;67.31
73133;DHT22;61320;52.008;4.530;2023-02-12T17:58:47;10.27;66.64
73133;DHT22;61320;52.008;4.530;2023-02-12T18:01:15;10.24;66.84
73133;DHT22;61320;52.008;4.530;2023-02-12T18:03:42;10.21;67.06
73133;DHT22;61320;52.008;4.530;2023-02-12T18:06:08;10.21;66.67
73133;DHT22;61320;52.008;4.530;2023-02-12T18:08:41;10.18;66.68
73133;DHT22;61320;52.008;4.530;2023-02-12T18:11:08;10.20;66.38
73133;DHT22;61320;52.008;4.530;2023-02-12T18:13:34;10.17;66.78